Search for airport 
image banner adimage banner adimage banner ad
image banner ad

PS06 - Snook

Located in Beaver Springs, United States

ICAO - PS06, IATA -

Data provided by Airmate  

General information

Coordinates: N40°44'0" W77°15'59"
Elevation is 710 feet MSL.
Magnetic variation is -10° East
View others Airports in Pennsylvania

Operational data

Special qualification required
Current time UTC:
Current local time:
Weather at : KRVL - Mifflin County ( 31 km )
METAR: KRVL 132015Z AUTO 15009KT 6SM HZ FEW034 28/20 A2984 RMK AO2
View NOTAMs / SUP AIP / TFR affecting this airport [VIEW]
Communications frequencies: [VIEW]

Runways:

RWY identifierQFULength (ft)Width (ft)SurfaceLDA (ft)
071300100GRASS
251300100GRASS

Airport contact information

Address: Beaver Springs United States

Satellite view of PS06